sensor_id;sensor_type;location;lat;lon;timestamp;P1;durP1;ratioP1;P2;durP2;ratioP2
11957;SDS011;6039;52.576;13.348;2024-01-30T00:03:35;15.17;;;6.10;;
11957;SDS011;6039;52.576;13.348;2024-01-30T00:08:39;10.37;;;5.80;;
11957;SDS011;6039;52.576;13.348;2024-01-30T00:13:46;11.93;;;5.57;;
11957;SDS011;6039;52.576;13.348;2024-01-30T00:18:53;10.27;;;5.97;;
11957;SDS011;6039;52.576;13.348;2024-01-30T00:23:57;13.57;;;5.83;;
11957;SDS011;6039;52.576;13.348;2024-01-30T00:29:01;10.47;;;5.53;;
11957;SDS011;6039;52.576;13.348;2024-01-30T00:34:08;10.83;;;5.10;;
11957;SDS011;6039;52.576;13.348;2024-01-30T00:39:11;11.10;;;5.13;;
11957;SDS011;6039;52.576;13.348;2024-01-30T00:44:16;10.93;;;5.30;;
11957;SDS011;6039;52.576;13.348;2024-01-30T00:49:22;10.47;;;5.30;;
11957;SDS011;6039;52.576;13.348;2024-01-30T00:54:26;9.77;;;5.33;;
11957;SDS011;6039;52.576;13.348;2024-01-30T00:59:30;11.03;;;5.13;;
11957;SDS011;6039;52.576;13.348;2024-01-30T01:04:37;8.40;;;4.93;;
11957;SDS011;6039;52.576;13.348;2024-01-30T01:09:41;9.83;;;4.90;;
11957;SDS011;6039;52.576;13.348;2024-01-30T01:14:45;8.63;;;5.07;;
11957;SDS011;6039;52.576;13.348;2024-01-30T01:19:51;9.80;;;5.57;;
11957;SDS011;6039;52.576;13.348;2024-01-30T01:24:55;8.93;;;5.13;;
11957;SDS011;6039;52.576;13.348;2024-01-30T01:29:59;9.20;;;5.20;;
11957;SDS011;6039;52.576;13.348;2024-01-30T01:35:08;9.43;;;5.30;;
11957;SDS011;6039;52.576;13.348;2024-01-30T01:40:12;8.43;;;4.93;;
11957;SDS011;6039;52.576;13.348;2024-01-30T01:45:16;9.50;;;5.17;;
11957;SDS011;6039;52.576;13.348;2024-01-30T01:50:23;11.47;;;5.07;;
11957;SDS011;6039;52.576;13.348;2024-01-30T01:55:27;8.03;;;4.93;;
11957;SDS011;6039;52.576;13.348;2024-01-30T02:00:33;11.37;;;5.30;;
11957;SDS011;6039;52.576;13.348;2024-01-30T02:05:42;11.80;;;5.00;;
11957;SDS011;6039;52.576;13.348;2024-01-30T02:10:46;8.47;;;5.20;;
11957;SDS011;6039;52.576;13.348;2024-01-30T02:15:50;9.47;;;5.20;;
11957;SDS011;6039;52.576;13.348;2024-01-30T02:20:58;9.57;;;5.67;;
11957;SDS011;6039;52.576;13.348;2024-01-30T02:26:08;11.23;;;5.23;;
11957;SDS011;6039;52.576;13.348;2024-01-30T02:31:12;9.53;;;5.33;;
11957;SDS011;6039;52.576;13.348;2024-01-30T02:36:19;10.73;;;5.40;;
11957;SDS011;6039;52.576;13.348;2024-01-30T02:41:23;10.73;;;5.60;;
11957;SDS011;6039;52.576;13.348;2024-01-30T02:46:27;11.13;;;5.50;;
11957;SDS011;6039;52.576;13.348;2024-01-30T02:51:33;10.77;;;5.80;;
11957;SDS011;6039;52.576;13.348;2024-01-30T02:56:37;12.17;;;5.57;;
11957;SDS011;6039;52.576;13.348;2024-01-30T03:01:42;9.07;;;5.50;;
11957;SDS011;6039;52.576;13.348;2024-01-30T03:06:50;10.53;;;5.77;;
11957;SDS011;6039;52.576;13.348;2024-01-30T03:11:54;10.90;;;5.60;;
11957;SDS011;6039;52.576;13.348;2024-01-30T03:16:58;9.67;;;5.67;;
11957;SDS011;6039;52.576;13.348;2024-01-30T03:22:05;11.77;;;5.57;;
11957;SDS011;6039;52.576;13.348;2024-01-30T03:27:09;12.17;;;5.97;;
11957;SDS011;6039;52.576;13.348;2024-01-30T03:32:13;9.30;;;5.17;;
11957;SDS011;6039;52.576;13.348;2024-01-30T03:37:20;8.73;;;5.17;;
11957;SDS011;6039;52.576;13.348;2024-01-30T03:42:24;11.47;;;5.43;;
11957;SDS011;6039;52.576;13.348;2024-01-30T03:47:28;9.33;;;5.63;;
11957;SDS011;6039;52.576;13.348;2024-01-30T03:52:34;12.07;;;5.67;;
11957;SDS011;6039;52.576;13.348;2024-01-30T03:57:38;9.13;;;5.57;;
11957;SDS011;6039;52.576;13.348;2024-01-30T04:02:42;10.67;;;5.27;;
11957;SDS011;6039;52.576;13.348;2024-01-30T04:07:49;10.03;;;5.50;;
11957;SDS011;6039;52.576;13.348;2024-01-30T04:12:53;10.07;;;5.70;;
11957;SDS011;6039;52.576;13.348;2024-01-30T04:17:57;12.57;;;5.87;;
11957;SDS011;6039;52.576;13.348;2024-01-30T04:23:04;8.97;;;5.30;;
11957;SDS011;6039;52.576;13.348;2024-01-30T04:28:07;12.47;;;6.03;;
11957;SDS011;6039;52.576;13.348;2024-01-30T04:33:12;14.20;;;6.33;;
11957;SDS011;6039;52.576;13.348;2024-01-30T04:38:20;11.53;;;5.57;;
11957;SDS011;6039;52.576;13.348;2024-01-30T04:43:24;9.80;;;5.50;;
11957;SDS011;6039;52.576;13.348;2024-01-30T04:48:29;8.00;;;5.13;;
11957;SDS011;6039;52.576;13.348;2024-01-30T04:53:35;9.17;;;5.90;;
11957;SDS011;6039;52.576;13.348;2024-01-30T04:58:39;9.97;;;5.30;;
11957;SDS011;6039;52.576;13.348;2024-01-30T05:03:43;11.70;;;5.77;;
11957;SDS011;6039;52.576;13.348;2024-01-30T05:08:50;12.50;;;6.13;;
11957;SDS011;6039;52.576;13.348;2024-01-30T05:13:54;11.30;;;6.23;;
11957;SDS011;6039;52.576;13.348;2024-01-30T05:18:58;12.40;;;6.10;;
11957;SDS011;6039;52.576;13.348;2024-01-30T05:24:05;11.03;;;5.80;;
11957;SDS011;6039;52.576;13.348;2024-01-30T05:29:10;11.30;;;5.77;;
11957;SDS011;6039;52.576;13.348;2024-01-30T05:34:14;10.87;;;6.23;;
11957;SDS011;6039;52.576;13.348;2024-01-30T05:39:23;10.27;;;6.10;;
11957;SDS011;6039;52.576;13.348;2024-01-30T05:44:27;12.23;;;6.57;;
11957;SDS011;6039;52.576;13.348;2024-01-30T05:49:31;11.73;;;6.30;;
11957;SDS011;6039;52.576;13.348;2024-01-30T05:54:38;11.07;;;5.67;;
11957;SDS011;6039;52.576;13.348;2024-01-30T05:59:42;9.77;;;5.73;;
11957;SDS011;6039;52.576;13.348;2024-01-30T06:04:47;12.43;;;5.93;;
11957;SDS011;6039;52.576;13.348;2024-01-30T06:09:54;13.53;;;6.33;;
11957;SDS011;6039;52.576;13.348;2024-01-30T06:15:00;9.33;;;5.67;;
11957;SDS011;6039;52.576;13.348;2024-01-30T06:20:05;11.00;;;5.57;;
11957;SDS011;6039;52.576;13.348;2024-01-30T06:25:13;10.93;;;6.13;;
11957;SDS011;6039;52.576;13.348;2024-01-30T06:30:17;11.37;;;5.77;;
11957;SDS011;6039;52.576;13.348;2024-01-30T06:35:21;10.60;;;5.37;;
11957;SDS011;6039;52.576;13.348;2024-01-30T06:40:28;11.53;;;5.70;;
11957;SDS011;6039;52.576;13.348;2024-01-30T06:45:32;13.70;;;6.30;;
11957;SDS011;6039;52.576;13.348;2024-01-30T06:50:36;11.13;;;5.80;;
11957;SDS011;6039;52.576;13.348;2024-01-30T06:55:42;10.30;;;5.97;;
11957;SDS011;6039;52.576;13.348;2024-01-30T07:00:47;10.57;;;5.90;;
11957;SDS011;6039;52.576;13.348;2024-01-30T07:05:50;11.03;;;6.30;;
11957;SDS011;6039;52.576;13.348;2024-01-30T07:10:57;11.43;;;6.03;;
11957;SDS011;6039;52.576;13.348;2024-01-30T07:16:01;10.83;;;6.20;;
11957;SDS011;6039;52.576;13.348;2024-01-30T07:21:05;9.70;;;5.37;;
11957;SDS011;6039;52.576;13.348;2024-01-30T07:26:12;10.23;;;5.77;;
11957;SDS011;6039;52.576;13.348;2024-01-30T07:31:16;10.30;;;6.00;;
11957;SDS011;6039;52.576;13.348;2024-01-30T07:36:20;9.47;;;5.83;;
11957;SDS011;6039;52.576;13.348;2024-01-30T07:41:27;12.53;;;6.60;;
11957;SDS011;6039;52.576;13.348;2024-01-30T07:46:31;10.60;;;5.57;;
11957;SDS011;6039;52.576;13.348;2024-01-30T07:51:35;12.10;;;6.30;;
11957;SDS011;6039;52.576;13.348;2024-01-30T07:56:42;13.17;;;5.80;;
11957;SDS011;6039;52.576;13.348;2024-01-30T08:01:46;12.53;;;6.27;;
11957;SDS011;6039;52.576;13.348;2024-01-30T08:06:50;12.33;;;6.40;;
11957;SDS011;6039;52.576;13.348;2024-01-30T08:11:56;12.97;;;6.80;;
11957;SDS011;6039;52.576;13.348;2024-01-30T08:17:00;14.67;;;6.60;;
11957;SDS011;6039;52.576;13.348;2024-01-30T08:22:05;19.40;;;7.17;;
11957;SDS011;6039;52.576;13.348;2024-01-30T08:27:11;11.53;;;6.53;;
11957;SDS011;6039;52.576;13.348;2024-01-30T08:32:15;12.40;;;7.00;;
11957;SDS011;6039;52.576;13.348;2024-01-30T08:37:19;14.27;;;6.57;;
11957;SDS011;6039;52.576;13.348;2024-01-30T08:42:26;13.23;;;7.03;;
11957;SDS011;6039;52.576;13.348;2024-01-30T08:47:30;12.83;;;6.67;;
11957;SDS011;6039;52.576;13.348;2024-01-30T08:52:34;10.83;;;7.17;;
11957;SDS011;6039;52.576;13.348;2024-01-30T08:57:41;11.23;;;6.83;;
11957;SDS011;6039;52.576;13.348;2024-01-30T09:02:44;15.27;;;6.73;;
11957;SDS011;6039;52.576;13.348;2024-01-30T09:07:48;10.53;;;6.40;;
11957;SDS011;6039;52.576;13.348;2024-01-30T09:12:55;12.37;;;7.37;;
11957;SDS011;6039;52.576;13.348;2024-01-30T09:17:59;12.37;;;6.50;;
11957;SDS011;6039;52.576;13.348;2024-01-30T09:23:03;14.40;;;6.53;;
11957;SDS011;6039;52.576;13.348;2024-01-30T09:28:10;11.53;;;6.67;;
11957;SDS011;6039;52.576;13.348;2024-01-30T09:33:14;11.70;;;5.73;;
11957;SDS011;6039;52.576;13.348;2024-01-30T09:38:18;11.03;;;6.00;;
11957;SDS011;6039;52.576;13.348;2024-01-30T09:43:25;10.77;;;5.80;;
11957;SDS011;6039;52.576;13.348;2024-01-30T09:48:30;10.80;;;6.23;;
11957;SDS011;6039;52.576;13.348;2024-01-30T09:53:34;9.60;;;5.63;;
11957;SDS011;6039;52.576;13.348;2024-01-30T09:58:42;9.80;;;5.63;;
11957;SDS011;6039;52.576;13.348;2024-01-30T10:03:46;11.17;;;6.40;;
11957;SDS011;6039;52.576;13.348;2024-01-30T10:08:50;9.07;;;5.50;;
11957;SDS011;6039;52.576;13.348;2024-01-30T10:13:57;10.10;;;5.57;;
11957;SDS011;6039;52.576;13.348;2024-01-30T10:19:01;9.03;;;5.67;;
11957;SDS011;6039;52.576;13.348;2024-01-30T10:24:05;8.63;;;5.53;;
11957;SDS011;6039;52.576;13.348;2024-01-30T10:29:12;9.13;;;5.33;;
11957;SDS011;6039;52.576;13.348;2024-01-30T10:34:16;9.27;;;5.47;;
11957;SDS011;6039;52.576;13.348;2024-01-30T10:39:20;9.87;;;5.37;;
11957;SDS011;6039;52.576;13.348;2024-01-30T10:44:27;7.67;;;5.43;;
11957;SDS011;6039;52.576;13.348;2024-01-30T10:49:36;8.60;;;5.23;;
11957;SDS011;6039;52.576;13.348;2024-01-30T10:54:40;10.83;;;6.07;;
11957;SDS011;6039;52.576;13.348;2024-01-30T10:59:50;8.90;;;5.67;;
11957;SDS011;6039;52.576;13.348;2024-01-30T11:04:56;9.67;;;6.07;;
11957;SDS011;6039;52.576;13.348;2024-01-30T11:10:01;9.30;;;5.50;;
11957;SDS011;6039;52.576;13.348;2024-01-30T11:15:11;8.73;;;5.57;;
11957;SDS011;6039;52.576;13.348;2024-01-30T11:20:19;9.03;;;5.20;;
11957;SDS011;6039;52.576;13.348;2024-01-30T11:25:23;7.77;;;4.87;;
11957;SDS011;6039;52.576;13.348;2024-01-30T11:30:31;8.63;;;5.27;;
11957;SDS011;6039;52.576;13.348;2024-01-30T11:35:36;10.57;;;5.70;;
11957;SDS011;6039;52.576;13.348;2024-01-30T11:40:40;9.93;;;5.13;;
11957;SDS011;6039;52.576;13.348;2024-01-30T11:45:48;9.40;;;5.23;;
11957;SDS011;6039;52.576;13.348;2024-01-30T11:50:52;9.20;;;5.37;;
11957;SDS011;6039;52.576;13.348;2024-01-30T11:55:56;9.73;;;5.53;;
11957;SDS011;6039;52.576;13.348;2024-01-30T12:01:03;9.37;;;5.33;;
11957;SDS011;6039;52.576;13.348;2024-01-30T12:06:07;9.37;;;5.40;;
11957;SDS011;6039;52.576;13.348;2024-01-30T12:11:11;10.13;;;5.37;;
11957;SDS011;6039;52.576;13.348;2024-01-30T12:16:17;8.43;;;5.50;;
11957;SDS011;6039;52.576;13.348;2024-01-30T12:21:22;9.17;;;5.57;;
11957;SDS011;6039;52.576;13.348;2024-01-30T12:26:26;11.57;;;5.37;;
11957;SDS011;6039;52.576;13.348;2024-01-30T12:31:34;9.80;;;5.27;;
11957;SDS011;6039;52.576;13.348;2024-01-30T12:36:38;9.40;;;5.40;;
11957;SDS011;6039;52.576;13.348;2024-01-30T12:41:42;11.87;;;5.70;;
11957;SDS011;6039;52.576;13.348;2024-01-30T12:46:49;10.97;;;6.10;;
11957;SDS011;6039;52.576;13.348;2024-01-30T12:51:53;10.03;;;5.53;;
11957;SDS011;6039;52.576;13.348;2024-01-30T12:56:57;8.30;;;5.77;;
11957;SDS011;6039;52.576;13.348;2024-01-30T13:02:04;10.43;;;5.93;;
11957;SDS011;6039;52.576;13.348;2024-01-30T13:07:09;11.13;;;5.93;;
11957;SDS011;6039;52.576;13.348;2024-01-30T13:12:13;9.10;;;5.60;;
11957;SDS011;6039;52.576;13.348;2024-01-30T13:17:19;11.67;;;6.30;;
11957;SDS011;6039;52.576;13.348;2024-01-30T13:22:23;10.10;;;5.40;;
11957;SDS011;6039;52.576;13.348;2024-01-30T13:27:27;10.33;;;6.03;;
11957;SDS011;6039;52.576;13.348;2024-01-30T13:32:34;10.67;;;6.20;;
11957;SDS011;6039;52.576;13.348;2024-01-30T13:37:38;9.37;;;5.50;;
11957;SDS011;6039;52.576;13.348;2024-01-30T13:42:42;10.43;;;6.43;;
11957;SDS011;6039;52.576;13.348;2024-01-30T13:47:48;10.33;;;6.20;;
11957;SDS011;6039;52.576;13.348;2024-01-30T13:52:52;9.63;;;5.53;;
11957;SDS011;6039;52.576;13.348;2024-01-30T13:57:57;10.90;;;5.90;;
11957;SDS011;6039;52.576;13.348;2024-01-30T14:03:04;10.73;;;6.47;;
11957;SDS011;6039;52.576;13.348;2024-01-30T14:08:08;8.93;;;5.73;;
11957;SDS011;6039;52.576;13.348;2024-01-30T14:13:12;11.93;;;6.37;;
11957;SDS011;6039;52.576;13.348;2024-01-30T14:18:19;11.77;;;6.40;;
11957;SDS011;6039;52.576;13.348;2024-01-30T14:23:23;12.13;;;6.53;;
11957;SDS011;6039;52.576;13.348;2024-01-30T14:28:27;11.43;;;6.10;;
11957;SDS011;6039;52.576;13.348;2024-01-30T14:33:34;9.37;;;5.80;;
11957;SDS011;6039;52.576;13.348;2024-01-30T14:38:38;9.97;;;6.20;;
11957;SDS011;6039;52.576;13.348;2024-01-30T14:43:41;10.77;;;6.47;;
11957;SDS011;6039;52.576;13.348;2024-01-30T14:48:48;11.33;;;6.17;;
11957;SDS011;6039;52.576;13.348;2024-01-30T14:53:53;13.03;;;5.70;;
11957;SDS011;6039;52.576;13.348;2024-01-30T14:58:57;9.33;;;5.77;;
11957;SDS011;6039;52.576;13.348;2024-01-30T15:04:03;14.53;;;6.27;;
11957;SDS011;6039;52.576;13.348;2024-01-30T15:09:07;16.03;;;6.13;;
11957;SDS011;6039;52.576;13.348;2024-01-30T15:14:11;8.50;;;5.53;;
11957;SDS011;6039;52.576;13.348;2024-01-30T15:19:18;12.10;;;6.87;;
11957;SDS011;6039;52.576;13.348;2024-01-30T15:24:22;12.23;;;6.33;;
11957;SDS011;6039;52.576;13.348;2024-01-30T15:29:26;11.13;;;6.37;;
11957;SDS011;6039;52.576;13.348;2024-01-30T15:34:33;9.83;;;6.23;;
11957;SDS011;6039;52.576;13.348;2024-01-30T15:39:37;16.00;;;6.37;;
11957;SDS011;6039;52.576;13.348;2024-01-30T15:44:40;11.77;;;6.30;;
11957;SDS011;6039;52.576;13.348;2024-01-30T15:49:47;10.43;;;5.93;;
11957;SDS011;6039;52.576;13.348;2024-01-30T15:54:51;9.63;;;6.10;;
11957;SDS011;6039;52.576;13.348;2024-01-30T15:59:55;10.33;;;6.33;;
11957;SDS011;6039;52.576;13.348;2024-01-30T16:05:02;11.07;;;6.20;;
11957;SDS011;6039;52.576;13.348;2024-01-30T16:10:07;10.10;;;5.90;;
11957;SDS011;6039;52.576;13.348;2024-01-30T16:15:16;10.27;;;5.83;;
11957;SDS011;6039;52.576;13.348;2024-01-30T16:20:23;10.57;;;5.90;;
11957;SDS011;6039;52.576;13.348;2024-01-30T16:25:27;13.77;;;6.33;;
11957;SDS011;6039;52.576;13.348;2024-01-30T16:30:31;12.77;;;6.80;;
11957;SDS011;6039;52.576;13.348;2024-01-30T16:35:37;11.87;;;6.30;;
11957;SDS011;6039;52.576;13.348;2024-01-30T16:40:41;9.87;;;6.23;;
11957;SDS011;6039;52.576;13.348;2024-01-30T16:45:45;12.83;;;6.70;;
11957;SDS011;6039;52.576;13.348;2024-01-30T16:50:52;10.17;;;6.00;;
11957;SDS011;6039;52.576;13.348;2024-01-30T16:55:56;11.47;;;6.63;;
11957;SDS011;6039;52.576;13.348;2024-01-30T17:01:00;9.33;;;6.23;;
11957;SDS011;6039;52.576;13.348;2024-01-30T17:06:07;9.70;;;6.30;;
11957;SDS011;6039;52.576;13.348;2024-01-30T17:11:13;12.27;;;7.40;;
11957;SDS011;6039;52.576;13.348;2024-01-30T17:16:18;11.03;;;6.90;;
11957;SDS011;6039;52.576;13.348;2024-01-30T17:21:24;12.00;;;6.30;;
11957;SDS011;6039;52.576;13.348;2024-01-30T17:26:28;11.90;;;6.33;;
11957;SDS011;6039;52.576;13.348;2024-01-30T17:31:33;11.30;;;6.70;;
11957;SDS011;6039;52.576;13.348;2024-01-30T17:36:39;10.70;;;6.83;;
11957;SDS011;6039;52.576;13.348;2024-01-30T17:41:44;13.17;;;6.30;;
11957;SDS011;6039;52.576;13.348;2024-01-30T17:46:48;11.20;;;6.47;;
11957;SDS011;6039;52.576;13.348;2024-01-30T17:51:56;11.27;;;6.67;;
11957;SDS011;6039;52.576;13.348;2024-01-30T17:57:00;14.90;;;6.63;;
11957;SDS011;6039;52.576;13.348;2024-01-30T18:02:04;15.60;;;7.17;;
11957;SDS011;6039;52.576;13.348;2024-01-30T18:07:11;16.67;;;7.10;;
11957;SDS011;6039;52.576;13.348;2024-01-30T18:12:15;12.30;;;7.03;;
11957;SDS011;6039;52.576;13.348;2024-01-30T18:17:19;9.53;;;6.40;;
11957;SDS011;6039;52.576;13.348;2024-01-30T18:22:25;10.23;;;6.47;;
11957;SDS011;6039;52.576;13.348;2024-01-30T18:27:29;15.87;;;7.03;;
11957;SDS011;6039;52.576;13.348;2024-01-30T18:32:33;10.60;;;7.27;;
11957;SDS011;6039;52.576;13.348;2024-01-30T18:37:39;15.50;;;6.90;;
11957;SDS011;6039;52.576;13.348;2024-01-30T18:42:43;9.87;;;6.20;;
11957;SDS011;6039;52.576;13.348;2024-01-30T18:47:50;12.93;;;6.87;;
11957;SDS011;6039;52.576;13.348;2024-01-30T18:52:56;9.97;;;6.40;;
11957;SDS011;6039;52.576;13.348;2024-01-30T18:58:00;10.20;;;6.47;;
11957;SDS011;6039;52.576;13.348;2024-01-30T19:03:06;13.00;;;6.97;;
11957;SDS011;6039;52.576;13.348;2024-01-30T19:08:13;11.13;;;6.80;;
11957;SDS011;6039;52.576;13.348;2024-01-30T19:13:16;12.90;;;6.93;;
11957;SDS011;6039;52.576;13.348;2024-01-30T19:18:20;14.17;;;7.80;;
11957;SDS011;6039;52.576;13.348;2024-01-30T19:23:27;16.20;;;8.13;;
11957;SDS011;6039;52.576;13.348;2024-01-30T19:28:31;15.67;;;7.67;;
11957;SDS011;6039;52.576;13.348;2024-01-30T19:33:35;13.07;;;6.73;;
11957;SDS011;6039;52.576;13.348;2024-01-30T19:38:41;10.63;;;6.90;;
11957;SDS011;6039;52.576;13.348;2024-01-30T19:43:46;14.47;;;7.03;;
11957;SDS011;6039;52.576;13.348;2024-01-30T19:48:50;11.47;;;6.50;;
11957;SDS011;6039;52.576;13.348;2024-01-30T19:53:56;15.57;;;7.57;;
11957;SDS011;6039;52.576;13.348;2024-01-30T19:59:00;10.90;;;6.77;;
11957;SDS011;6039;52.576;13.348;2024-01-30T20:04:04;10.70;;;7.10;;
11957;SDS011;6039;52.576;13.348;2024-01-30T20:09:11;14.03;;;7.33;;
11957;SDS011;6039;52.576;13.348;2024-01-30T20:14:15;12.23;;;7.30;;
11957;SDS011;6039;52.576;13.348;2024-01-30T20:19:20;10.90;;;6.67;;
11957;SDS011;6039;52.576;13.348;2024-01-30T20:24:26;12.57;;;7.03;;
11957;SDS011;6039;52.576;13.348;2024-01-30T20:29:31;11.37;;;7.40;;
11957;SDS011;6039;52.576;13.348;2024-01-30T20:34:36;14.37;;;8.00;;
11957;SDS011;6039;52.576;13.348;2024-01-30T20:39:42;11.20;;;7.17;;
11957;SDS011;6039;52.576;13.348;2024-01-30T20:44:46;15.63;;;7.13;;
11957;SDS011;6039;52.576;13.348;2024-01-30T20:49:50;14.27;;;7.50;;
11957;SDS011;6039;52.576;13.348;2024-01-30T20:54:57;15.00;;;7.67;;
11957;SDS011;6039;52.576;13.348;2024-01-30T21:00:01;10.77;;;6.60;;
11957;SDS011;6039;52.576;13.348;2024-01-30T21:05:07;12.67;;;7.50;;
11957;SDS011;6039;52.576;13.348;2024-01-30T21:10:14;13.37;;;7.17;;
11957;SDS011;6039;52.576;13.348;2024-01-30T21:15:18;11.97;;;7.47;;
11957;SDS011;6039;52.576;13.348;2024-01-30T21:20:22;13.47;;;7.30;;
11957;SDS011;6039;52.576;13.348;2024-01-30T21:25:29;11.73;;;7.37;;
11957;SDS011;6039;52.576;13.348;2024-01-30T21:30:33;17.50;;;8.13;;
11957;SDS011;6039;52.576;13.348;2024-01-30T21:35:37;12.20;;;7.07;;
11957;SDS011;6039;52.576;13.348;2024-01-30T21:40:44;10.77;;;7.27;;
11957;SDS011;6039;52.576;13.348;2024-01-30T21:45:48;11.17;;;6.90;;
11957;SDS011;6039;52.576;13.348;2024-01-30T21:50:52;10.37;;;6.60;;
11957;SDS011;6039;52.576;13.348;2024-01-30T21:55:59;14.77;;;7.40;;
11957;SDS011;6039;52.576;13.348;2024-01-30T22:01:03;13.37;;;7.20;;
11957;SDS011;6039;52.576;13.348;2024-01-30T22:06:07;11.83;;;7.17;;
11957;SDS011;6039;52.576;13.348;2024-01-30T22:11:14;10.33;;;6.57;;
11957;SDS011;6039;52.576;13.348;2024-01-30T22:16:18;11.70;;;7.13;;
11957;SDS011;6039;52.576;13.348;2024-01-30T22:21:22;10.57;;;6.73;;
11957;SDS011;6039;52.576;13.348;2024-01-30T22:26:29;11.73;;;7.10;;
11957;SDS011;6039;52.576;13.348;2024-01-30T22:31:33;14.20;;;6.93;;
11957;SDS011;6039;52.576;13.348;2024-01-30T22:36:37;11.73;;;7.17;;
11957;SDS011;6039;52.576;13.348;2024-01-30T22:41:43;11.43;;;7.17;;
11957;SDS011;6039;52.576;13.348;2024-01-30T22:46:47;12.20;;;6.97;;
11957;SDS011;6039;52.576;13.348;2024-01-30T22:51:51;12.20;;;7.67;;
11957;SDS011;6039;52.576;13.348;2024-01-30T22:56:58;11.83;;;7.13;;
11957;SDS011;6039;52.576;13.348;2024-01-30T23:02:03;13.97;;;7.13;;
11957;SDS011;6039;52.576;13.348;2024-01-30T23:07:07;10.80;;;7.13;;
11957;SDS011;6039;52.576;13.348;2024-01-30T23:12:18;13.93;;;7.57;;
11957;SDS011;6039;52.576;13.348;2024-01-30T23:17:22;10.47;;;7.03;;
11957;SDS011;6039;52.576;13.348;2024-01-30T23:22:26;10.90;;;7.13;;
11957;SDS011;6039;52.576;13.348;2024-01-30T23:27:33;13.53;;;7.30;;
11957;SDS011;6039;52.576;13.348;2024-01-30T23:32:37;11.90;;;7.43;;
11957;SDS011;6039;52.576;13.348;2024-01-30T23:37:41;14.13;;;6.97;;
11957;SDS011;6039;52.576;13.348;2024-01-30T23:42:47;13.17;;;7.90;;
11957;SDS011;6039;52.576;13.348;2024-01-30T23:47:51;13.03;;;7.20;;
11957;SDS011;6039;52.576;13.348;2024-01-30T23:52:55;10.27;;;6.40;;
11957;SDS011;6039;52.576;13.348;2024-01-30T23:58:01;13.00;;;6.87;;
